Time;durP1;ratioP1;P1;durP2;ratioP2;P2;SDS_P1;SDS_P2;PMS_P1;PMS_P2;Temp;Humidity;BMP_temperature;BMP_pressure;BME280_temperature;BME280_humidity;BME280_pressure;Samples;Min_cycle;Max_cycle;Signal;HPM_P1;HPM_P2
2022/01/02 00:01:12;;;;;;;9.20;5.38;;;10.40;99.90;;;;;;5085831;28;20454;-81
2022/01/02 00:03:40;;;;;;;8.65;4.65;;;10.30;99.90;;;;;;5083515;28;20048;-82
2022/01/02 00:06:07;;;;;;;9.48;4.65;;;10.30;99.90;;;;;;5082906;28;20044;-81
2022/01/02 00:08:41;;;;;;;10.82;4.43;;;10.30;99.90;;;;;;5069810;28;20507;-81
2022/01/02 00:11:11;;;;;;;12.45;4.28;;;10.30;99.90;;;;;;5085152;28;20289;-80
2022/01/02 00:13:45;;;;;;;9.13;4.32;;;10.20;99.90;;;;;;5081727;28;20067;-81
2022/01/02 00:16:15;;;;;;;12.00;4.50;;;10.20;99.90;;;;;;5086604;28;20039;-81
2022/01/02 00:18:49;;;;;;;10.60;4.63;;;10.20;99.90;;;;;;5069682;28;20080;-81
2022/01/02 00:21:17;;;;;;;12.60;4.50;;;10.20;99.90;;;;;;5052289;28;20043;-81
2022/01/02 00:24:10;;;;;;;10.10;4.57;;;10.20;99.90;;;;;;5065245;28;20086;-81
2022/01/02 00:26:38;;;;;;;11.55;4.75;;;10.20;99.90;;;;;;5073230;28;20065;-82
2022/01/02 00:29:06;;;;;;;10.18;4.82;;;10.10;99.90;;;;;;5064898;28;20048;-82
2022/01/02 00:31:33;;;;;;;7.45;4.30;;;10.20;99.90;;;;;;5084668;28;20036;-81
2022/01/02 00:34:05;;;;;;;11.60;4.85;;;10.10;99.90;;;;;;5084903;28;20395;-81
2022/01/02 00:36:31;;;;;;;11.38;5.35;;;10.10;99.90;;;;;;5079634;28;20500;-80
2022/01/02 00:38:57;;;;;;;10.60;4.95;;;10.10;99.90;;;;;;5054178;28;20039;-81
2022/01/02 00:41:26;;;;;;;8.80;4.80;;;10.00;99.90;;;;;;5063102;28;20043;-81
2022/01/02 00:44:02;;;;;;;10.95;4.82;;;10.10;99.90;;;;;;5082031;28;20105;-81
2022/01/02 00:46:32;;;;;;;14.88;5.40;;;9.90;99.90;;;;;;5064160;28;20439;-80
2022/01/02 00:49:04;;;;;;;9.38;4.85;;;9.90;99.90;;;;;;5090675;28;20040;-80
2022/01/02 00:51:47;;;;;;;13.50;5.60;;;9.90;99.90;;;;;;5074053;28;20132;-80
2022/01/02 00:54:17;;;;;;;10.32;5.70;;;9.90;99.90;;;;;;5087213;28;20047;-80
2022/01/02 00:56:46;;;;;;;12.07;5.82;;;9.90;99.90;;;;;;5088177;28;20389;-80
2022/01/02 00:59:28;;;;;;;9.90;5.80;;;9.80;99.90;;;;;;5072167;28;20282;-80
2022/01/02 01:02:02;;;;;;;16.38;5.80;;;9.80;99.90;;;;;;5073016;28;20040;-81
2022/01/02 01:04:30;;;;;;;11.10;5.97;;;9.70;99.90;;;;;;5057248;28;20134;-81
2022/01/02 01:07:02;;;;;;;8.75;5.50;;;9.70;99.90;;;;;;5085861;28;20047;-80
2022/01/02 01:09:30;;;;;;;10.40;5.07;;;9.70;99.90;;;;;;5089015;28;20528;-80
2022/01/02 01:12:01;;;;;;;14.68;5.20;;;9.70;99.90;;;;;;5069918;28;20400;-81
2022/01/02 01:14:29;;;;;;;13.10;5.40;;;9.70;99.90;;;;;;5083963;28;20550;-80
2022/01/02 01:16:56;;;;;;;11.85;4.95;;;9.70;99.90;;;;;;5089058;28;20044;-81
2022/01/02 01:19:23;;;;;;;13.82;5.85;;;9.70;99.90;;;;;;5086877;28;20065;-80
2022/01/02 01:21:49;;;;;;;11.88;5.18;;;9.70;99.90;;;;;;5086638;28;20046;-79
2022/01/02 01:24:16;;;;;;;10.98;5.55;;;9.70;99.90;;;;;;5037394;28;20051;-80
2022/01/02 01:26:43;;;;;;;14.15;5.57;;;9.70;99.90;;;;;;5070074;28;20036;-80
2022/01/02 01:29:09;;;;;;;13.30;5.78;;;9.80;99.90;;;;;;5057558;28;20050;-80
2022/01/02 01:31:34;;;;;;;14.80;6.15;;;9.80;99.90;;;;;;5071548;28;20051;-80
2022/01/02 01:34:00;;;;;;;11.57;5.90;;;9.80;99.90;;;;;;5055328;28;20159;-79
2022/01/02 01:36:26;;;;;;;15.57;6.57;;;9.80;99.90;;;;;;5073426;28;20400;-80
2022/01/02 01:38:51;;;;;;;14.75;6.03;;;9.80;99.90;;;;;;5073210;28;20051;-79
2022/01/02 01:41:27;;;;;;;14.50;6.78;;;9.80;99.90;;;;;;5088547;28;20044;-81
2022/01/02 01:44:05;;;;;;;14.18;6.70;;;9.80;99.90;;;;;;5071536;28;20047;-80
2022/01/02 01:46:32;;;;;;;11.98;6.70;;;9.80;99.90;;;;;;5057951;28;20504;-80
2022/01/02 01:48:58;;;;;;;12.38;6.47;;;9.90;99.90;;;;;;5056296;28;20052;-80
2022/01/02 01:51:25;;;;;;;13.98;6.63;;;9.90;99.90;;;;;;5053162;28;20043;-80
2022/01/02 01:53:51;;;;;;;17.08;6.85;;;9.90;99.90;;;;;;5053184;28;20135;-80
2022/01/02 01:56:17;;;;;;;16.98;7.35;;;9.90;99.90;;;;;;5072870;28;20043;-80
2022/01/02 01:58:43;;;;;;;13.63;7.13;;;9.90;99.90;;;;;;5087496;28;20361;-80
2022/01/02 02:01:09;;;;;;;15.02;6.82;;;10.00;99.90;;;;;;5086230;28;20039;-79
2022/01/02 02:03:35;;;;;;;13.63;7.72;;;10.00;99.90;;;;;;5068165;28;20055;-80
2022/01/02 02:06:01;;;;;;;19.33;8.02;;;10.00;99.90;;;;;;5085480;28;20070;-80
2022/01/02 02:08:27;;;;;;;19.17;8.00;;;9.80;99.90;;;;;;5072909;28;20064;-79
2022/01/02 02:10:58;;;;;;;15.13;8.25;;;10.10;99.90;;;;;;5086615;28;20405;-79
2022/01/02 02:13:24;;;;;;;15.18;8.18;;;10.10;99.90;;;;;;5057354;28;20048;-79
2022/01/02 02:15:51;;;;;;;18.20;7.95;;;10.10;99.90;;;;;;5069995;28;20509;-80
2022/01/02 02:18:18;;;;;;;17.23;8.55;;;10.10;99.90;;;;;;5070404;28;20573;-79
2022/01/02 02:20:44;;;;;;;14.70;8.55;;;10.20;99.90;;;;;;5056317;28;20048;-80
2022/01/02 02:23:13;;;;;;;14.27;8.18;;;10.20;99.90;;;;;;5086262;28;20062;-79
2022/01/02 02:25:39;;;;;;;12.23;8.27;;;10.20;99.90;;;;;;5073234;28;20043;-80
2022/01/02 02:28:07;;;;;;;16.73;9.23;;;10.20;99.90;;;;;;5056116;28;20048;-80
2022/01/02 02:30:37;;;;;;;15.55;8.23;;;10.20;99.90;;;;;;5070460;28;20103;-80
2022/01/02 02:33:05;;;;;;;14.57;8.68;;;10.20;99.90;;;;;;5087820;28;20164;-80
2022/01/02 02:35:32;;;;;;;18.42;10.45;;;10.20;99.90;;;;;;5054200;28;20051;-80
2022/01/02 02:37:58;;;;;;;17.30;9.63;;;10.20;99.90;;;;;;5071609;28;20516;-80
2022/01/02 02:40:27;;;;;;;20.38;9.73;;;10.30;99.90;;;;;;5068860;28;20046;-80
2022/01/02 02:51:14;;;;;;;17.80;10.35;;;10.20;99.90;;;;;;5083259;28;20044;-80
2022/01/02 02:53:42;;;;;;;21.20;11.40;;;10.10;99.90;;;;;;5077222;28;20055;-81
2022/01/02 02:56:29;;;;;;;17.88;11.27;;;10.10;99.90;;;;;;5071256;28;20036;-80
2022/01/02 02:58:57;;;;;;;17.05;10.50;;;10.10;99.90;;;;;;5083458;28;20067;-80
2022/01/02 03:01:27;;;;;;;17.75;10.75;;;10.10;99.90;;;;;;5084537;28;20146;-80
2022/01/02 03:03:53;;;;;;;18.55;10.63;;;10.00;99.90;;;;;;5069524;28;20075;-80
2022/01/02 03:06:20;;;;;;;20.42;11.45;;;10.10;99.90;;;;;;5046536;28;20062;-80
2022/01/02 03:08:47;;;;;;;17.23;10.57;;;10.00;99.90;;;;;;5070492;28;20493;-80
2022/01/02 03:11:17;;;;;;;17.92;9.43;;;10.00;99.90;;;;;;5038255;28;20051;-79
2022/01/02 03:13:44;;;;;;;16.42;8.90;;;10.00;99.90;;;;;;5068000;28;20079;-80
2022/01/02 03:16:11;;;;;;;14.98;8.70;;;10.00;99.90;;;;;;5071400;28;20043;-80
2022/01/02 03:18:37;;;;;;;16.27;8.52;;;10.10;99.90;;;;;;5070596;28;20062;-81
2022/01/02 03:21:03;;;;;;;17.95;8.80;;;10.10;99.90;;;;;;5050879;28;20036;-81
2022/01/02 03:23:29;;;;;;;16.45;9.38;;;10.10;99.90;;;;;;5083188;28;20504;-80
2022/01/02 03:25:55;;;;;;;15.43;10.05;;;10.10;99.90;;;;;;5063869;28;20051;-79
2022/01/02 03:28:21;;;;;;;15.30;9.20;;;10.10;99.90;;;;;;5085065;28;20126;-79
2022/01/02 03:30:47;;;;;;;16.45;9.95;;;10.10;99.90;;;;;;5064119;28;20051;-80
2022/01/02 03:33:13;;;;;;;15.20;9.40;;;10.10;99.90;;;;;;5069023;28;20040;-80
2022/01/02 03:35:39;;;;;;;11.95;8.95;;;10.10;99.90;;;;;;5068557;28;20048;-79
2022/01/02 03:38:07;;;;;;;14.90;9.85;;;10.10;99.90;;;;;;5070457;28;20489;-81
2022/01/02 03:40:33;;;;;;;16.08;9.05;;;10.00;99.90;;;;;;5066805;28;20060;-79
2022/01/02 03:42:59;;;;;;;12.55;8.88;;;10.00;99.90;;;;;;5038606;28;20035;-80
2022/01/02 03:45:25;;;;;;;16.02;9.52;;;10.00;99.90;;;;;;5053364;28;20048;-79
2022/01/02 03:47:50;;;;;;;15.93;9.65;;;10.00;99.90;;;;;;5068502;28;20040;-79
2022/01/02 03:50:17;;;;;;;16.67;10.32;;;10.00;99.90;;;;;;5068074;28;20050;-79
2022/01/02 03:52:42;;;;;;;14.60;9.95;;;10.00;99.90;;;;;;5083993;28;20043;-80
2022/01/02 03:55:09;;;;;;;17.27;11.02;;;10.00;99.90;;;;;;5054269;28;20052;-81
2022/01/02 03:57:35;;;;;;;14.32;10.40;;;10.00;99.90;;;;;;5054010;28;20409;-81
2022/01/02 04:00:07;;;;;;;14.80;9.93;;;10.00;99.90;;;;;;5071063;28;20051;-80
2022/01/02 04:02:34;;;;;;;12.02;9.00;;;10.00;99.90;;;;;;5068687;28;20054;-81
2022/01/02 04:05:00;;;;;;;15.70;9.43;;;10.00;99.90;;;;;;5052034;28;20051;-80
2022/01/02 04:07:26;;;;;;;19.58;9.73;;;10.10;99.90;;;;;;5051463;28;20063;-81
2022/01/02 04:09:52;;;;;;;18.38;9.15;;;10.10;99.90;;;;;;5047367;28;20055;-81
2022/01/02 04:12:18;;;;;;;17.10;9.00;;;10.10;99.90;;;;;;5068262;28;20083;-80
2022/01/02 04:14:43;;;;;;;16.70;8.50;;;10.10;99.90;;;;;;5084835;28;20058;-80
2022/01/02 04:17:09;;;;;;;16.30;9.35;;;10.10;99.90;;;;;;5067451;28;20036;-81
2022/01/02 04:19:35;;;;;;;14.77;7.95;;;10.20;99.90;;;;;;5067794;28;20036;-80
2022/01/02 04:22:01;;;;;;;16.17;8.25;;;10.10;99.90;;;;;;5034793;28;20039;-80
2022/01/02 04:24:27;;;;;;;17.17;8.38;;;10.10;99.90;;;;;;5037142;28;20094;-80
2022/01/02 04:26:52;;;;;;;17.90;8.32;;;10.10;99.90;;;;;;5067883;28;20079;-80
2022/01/02 04:29:18;;;;;;;16.60;7.88;;;10.00;99.90;;;;;;5083280;28;20046;-79
2022/01/02 04:31:44;;;;;;;17.85;9.23;;;10.00;99.90;;;;;;5069458;28;20052;-80
2022/01/02 04:34:09;;;;;;;18.45;8.00;;;10.00;99.90;;;;;;5037031;28;20485;-81
2022/01/02 04:36:35;;;;;;;16.73;8.88;;;10.00;99.90;;;;;;5063804;28;20043;-80
2022/01/02 04:39:01;;;;;;;17.48;8.20;;;10.00;99.90;;;;;;5037979;28;20036;-81
2022/01/02 04:41:27;;;;;;;21.17;8.10;;;10.00;99.90;;;;;;5052591;28;20503;-80
2022/01/02 04:43:52;;;;;;;18.30;7.55;;;10.00;99.90;;;;;;5068559;28;20063;-80
2022/01/02 04:46:18;;;;;;;20.40;7.60;;;10.00;99.90;;;;;;5067225;28;21126;-80
2022/01/02 04:48:44;;;;;;;18.02;7.63;;;10.10;99.90;;;;;;5063497;28;20146;-81
2022/01/02 04:51:09;;;;;;;15.23;6.80;;;10.10;99.90;;;;;;5053033;28;20065;-81
2022/01/02 04:53:37;;;;;;;16.35;6.63;;;10.10;99.90;;;;;;5081200;28;20055;-80
2022/01/02 04:56:03;;;;;;;15.90;6.65;;;10.00;99.90;;;;;;5077354;28;20497;-81
2022/01/02 04:58:29;;;;;;;25.90;7.07;;;10.10;99.90;;;;;;5070057;28;20051;-80
2022/01/02 05:00:55;;;;;;;20.50;7.35;;;10.00;99.90;;;;;;5053067;28;20043;-81
2022/01/02 05:03:20;;;;;;;22.95;7.30;;;10.10;99.90;;;;;;5061612;28;20520;-81
2022/01/02 05:05:46;;;;;;;18.50;6.75;;;10.40;99.90;;;;;;5065913;28;20054;-80
2022/01/02 05:08:12;;;;;;;21.52;6.82;;;10.10;99.90;;;;;;5053234;28;20036;-81
2022/01/02 05:10:38;;;;;;;12.85;5.93;;;10.10;99.90;;;;;;5065974;28;20456;-81
2022/01/02 05:13:03;;;;;;;13.50;5.35;;;10.10;99.90;;;;;;5068974;28;20077;-80
2022/01/02 05:15:29;;;;;;;18.10;5.90;;;10.10;99.90;;;;;;5069524;28;20083;-81
2022/01/02 05:17:55;;;;;;;15.30;5.40;;;10.10;99.90;;;;;;5035977;28;20135;-80
2022/01/02 05:20:20;;;;;;;17.98;5.70;;;10.10;99.90;;;;;;5053709;28;20052;-80
2022/01/02 05:22:46;;;;;;;22.40;5.78;;;10.00;99.90;;;;;;5052439;28;20044;-79
2022/01/02 05:25:12;;;;;;;13.00;4.60;;;10.00;99.90;;;;;;5036431;28;20097;-80
2022/01/02 05:27:37;;;;;;;16.63;4.55;;;9.40;99.90;;;;;;5068321;28;20165;-79
2022/01/02 05:30:05;;;;;;;16.13;4.43;;;9.90;99.90;;;;;;5051027;28;20035;-80
2022/01/02 05:32:30;;;;;;;17.15;4.72;;;9.80;99.90;;;;;;5052260;28;20079;-80
2022/01/02 05:34:56;;;;;;;21.55;5.45;;;9.80;99.90;;;;;;5048541;28;20075;-80
2022/01/02 05:37:22;;;;;;;24.92;5.55;;;9.80;99.90;;;;;;5070351;28;20511;-81
2022/01/02 05:39:47;;;;;;;19.13;4.75;;;9.80;99.90;;;;;;5072066;28;20059;-80
2022/01/02 05:42:13;;;;;;;21.80;5.45;;;9.70;99.90;;;;;;5037521;28;20043;-81
2022/01/02 05:44:39;;;;;;;20.30;5.82;;;9.70;99.90;;;;;;5040571;28;20577;-80
2022/01/02 05:47:04;;;;;;;25.75;6.18;;;9.70;99.90;;;;;;5071910;28;20128;-81
2022/01/02 05:49:30;;;;;;;22.10;5.72;;;9.70;99.90;;;;;;5068925;28;20370;-81
2022/01/02 05:51:56;;;;;;;23.33;4.85;;;9.60;99.90;;;;;;5069628;28;20044;-80
2022/01/02 05:54:22;;;;;;;23.48;5.05;;;9.60;99.90;;;;;;5071529;28;20047;-80
2022/01/02 05:56:47;;;;;;;17.60;4.85;;;9.60;99.90;;;;;;5072638;28;20051;-79
2022/01/02 05:59:13;;;;;;;27.38;5.50;;;9.60;99.90;;;;;;5080879;28;20048;-80
2022/01/02 06:01:39;;;;;;;17.30;4.97;;;9.60;99.90;;;;;;5040303;28;20047;-80
2022/01/02 06:04:04;;;;;;;20.90;4.63;;;9.60;99.90;;;;;;5038944;28;20128;-81
2022/01/02 06:06:30;;;;;;;21.67;5.40;;;9.70;99.90;;;;;;5062752;28;20043;-80
2022/01/02 06:08:56;;;;;;;15.45;4.57;;;9.70;99.90;;;;;;5055907;28;20051;-81
2022/01/02 06:11:21;;;;;;;14.43;4.55;;;9.80;99.90;;;;;;5055713;28;20105;-81
2022/01/02 06:13:47;;;;;;;12.18;4.80;;;9.90;99.90;;;;;;5081456;28;20493;-80
2022/01/02 06:16:13;;;;;;;22.75;6.22;;;9.80;99.90;;;;;;5070655;28;20040;-81
2022/01/02 06:18:39;;;;;;;16.98;6.20;;;9.80;99.90;;;;;;5082694;28;20058;-81
2022/01/02 06:21:05;;;;;;;15.60;6.68;;;9.80;99.90;;;;;;5069862;28;20063;-81
2022/01/02 06:23:31;;;;;;;13.52;6.00;;;9.80;99.90;;;;;;5067829;28;20043;-81
2022/01/02 06:25:56;;;;;;;12.10;6.13;;;9.90;99.90;;;;;;5057063;28;20044;-80
2022/01/02 06:28:22;;;;;;;12.35;6.30;;;9.90;99.90;;;;;;5067961;28;20489;-81
2022/01/02 06:30:48;;;;;;;17.27;7.93;;;9.80;99.90;;;;;;5056870;28;20045;-80
2022/01/02 06:33:13;;;;;;;15.15;7.28;;;9.90;99.90;;;;;;5039590;28;20043;-80
2022/01/02 06:35:39;;;;;;;14.95;7.75;;;9.90;99.90;;;;;;5069468;28;20044;-81
2022/01/02 06:38:17;;;;;;;11.88;6.82;;;9.90;99.90;;;;;;5087441;28;20048;-81
2022/01/02 06:40:43;;;;;;;11.25;6.50;;;9.80;99.90;;;;;;5084499;28;20177;-80
2022/01/02 06:43:09;;;;;;;10.05;5.70;;;9.80;99.90;;;;;;5055293;28;20127;-80
2022/01/02 06:45:35;;;;;;;12.02;7.03;;;9.70;99.90;;;;;;5065869;28;20044;-80
2022/01/02 06:48:03;;;;;;;13.25;7.38;;;9.70;99.90;;;;;;5069738;28;20051;-80
2022/01/02 06:50:29;;;;;;;12.02;6.40;;;9.70;99.90;;;;;;5070009;28;20534;-80
2022/01/02 06:52:55;;;;;;;12.98;6.47;;;9.60;99.90;;;;;;5070525;28;20048;-80
2022/01/02 06:55:21;;;;;;;10.38;6.50;;;9.60;99.90;;;;;;5055597;28;20582;-81
2022/01/02 06:57:46;;;;;;;10.70;6.00;;;9.50;99.90;;;;;;5070168;28;20158;-81
2022/01/02 07:00:12;;;;;;;8.63;5.90;;;9.50;99.90;;;;;;5070120;28;20067;-80
2022/01/02 07:02:38;;;;;;;9.93;5.78;;;9.50;99.90;;;;;;5069372;28;20050;-80
2022/01/02 07:05:04;;;;;;;12.90;6.13;;;9.40;99.90;;;;;;5064307;28;20048;-81
2022/01/02 07:07:30;;;;;;;14.23;6.63;;;9.40;99.90;;;;;;5044559;28;20092;-80
2022/01/02 07:09:56;;;;;;;12.95;6.82;;;9.50;99.90;;;;;;5047852;28;20052;-79
2022/01/02 07:12:23;;;;;;;14.63;6.65;;;9.40;99.90;;;;;;5085533;28;20504;-81
2022/01/02 07:14:50;;;;;;;15.18;7.15;;;9.50;99.90;;;;;;5084023;28;20121;-81
2022/01/02 07:17:16;;;;;;;19.27;7.30;;;9.50;99.90;;;;;;5083457;28;20133;-78
2022/01/02 07:19:42;;;;;;;19.35;6.25;;;9.40;99.90;;;;;;5066217;28;20433;-79
2022/01/02 07:22:08;;;;;;;17.75;5.65;;;9.40;99.90;;;;;;5064874;28;20043;-78
2022/01/02 07:24:34;;;;;;;24.98;6.80;;;9.50;99.90;;;;;;5067157;28;20047;-79
2022/01/02 07:27:00;;;;;;;30.58;6.50;;;9.50;99.90;;;;;;5067795;28;20054;-79
2022/01/02 07:29:26;;;;;;;35.53;7.70;;;9.60;99.90;;;;;;5069322;28;20134;-80
2022/01/02 07:31:52;;;;;;;33.97;7.25;;;9.60;99.90;;;;;;5051762;28;20127;-79
2022/01/02 07:34:18;;;;;;;25.52;5.95;;;9.60;99.90;;;;;;5067789;28;20035;-78
2022/01/02 07:36:44;;;;;;;25.98;5.95;;;9.60;99.90;;;;;;5063841;28;20055;-78
2022/01/02 07:39:14;;;;;;;35.05;6.63;;;9.50;99.90;;;;;;5067092;28;20047;-81
2022/01/02 07:41:40;;;;;;;37.17;6.75;;;9.50;99.90;;;;;;5069501;28;20385;-79
2022/01/02 07:44:07;;;;;;;34.00;6.70;;;9.70;99.90;;;;;;5079284;28;20515;-80
2022/01/02 07:46:33;;;;;;;28.20;5.63;;;9.40;99.90;;;;;;5071904;28;20040;-79
2022/01/02 07:48:59;;;;;;;24.75;5.53;;;9.40;99.90;;;;;;5052336;28;20043;-80
2022/01/02 07:51:25;;;;;;;21.83;5.30;;;9.40;99.90;;;;;;5084494;28;20139;-80
2022/01/02 07:53:50;;;;;;;28.88;5.47;;;9.50;99.90;;;;;;5065070;28;20059;-80
2022/01/02 07:56:16;;;;;;;27.35;5.97;;;9.30;99.90;;;;;;5066286;28;20419;-80
2022/01/02 07:58:42;;;;;;;23.42;5.10;;;9.30;99.90;;;;;;5062670;28;20039;-78
2022/01/02 08:01:08;;;;;;;23.20;4.95;;;9.30;99.90;;;;;;5068356;28;20575;-78
2022/01/02 08:03:33;;;;;;;23.70;5.25;;;9.30;99.90;;;;;;5065619;28;20038;-79
2022/01/02 08:05:59;;;;;;;26.25;5.00;;;9.20;99.90;;;;;;5052589;28;20126;-78
2022/01/02 08:08:25;;;;;;;21.45;4.43;;;9.30;99.90;;;;;;5051652;28;20040;-79
2022/01/02 08:10:50;;;;;;;21.90;4.90;;;9.20;99.90;;;;;;5062469;28;20066;-79
2022/01/02 08:13:16;;;;;;;12.48;3.78;;;9.30;99.90;;;;;;5083282;28;20059;-79
2022/01/02 08:15:43;;;;;;;16.73;4.05;;;9.30;99.90;;;;;;5064416;28;20059;-79
2022/01/02 08:18:13;;;;;;;12.27;3.58;;;9.30;99.90;;;;;;5053468;28;20079;-79
2022/01/02 08:20:40;;;;;;;19.52;4.40;;;9.30;99.90;;;;;;5066959;28;20051;-79
2022/01/02 08:23:06;;;;;;;9.60;3.35;;;9.30;99.90;;;;;;5066616;28;20100;-79
2022/01/02 08:25:31;;;;;;;13.25;4.03;;;9.30;99.90;;;;;;5064626;28;20472;-80
2022/01/02 08:27:57;;;;;;;12.38;3.53;;;9.30;99.90;;;;;;5065390;28;20036;-79
2022/01/02 08:30:23;;;;;;;14.90;3.78;;;9.40;99.90;;;;;;5077146;28;20536;-80
2022/01/02 08:32:49;;;;;;;10.82;4.07;;;9.40;99.90;;;;;;5047657;28;20071;-80
2022/01/02 08:35:14;;;;;;;10.75;3.60;;;9.50;99.90;;;;;;5029551;28;20660;-79
2022/01/02 08:37:41;;;;;;;9.38;4.13;;;9.50;99.90;;;;;;5067079;28;20134;-80
2022/01/02 08:40:08;;;;;;;7.63;3.67;;;9.50;99.90;;;;;;5059672;28;20115;-79
2022/01/02 08:42:33;;;;;;;8.82;3.67;;;9.60;99.90;;;;;;5083868;28;20044;-80
2022/01/02 08:44:59;;;;;;;10.65;3.70;;;9.60;99.90;;;;;;5066459;28;20063;-79
2022/01/02 08:47:25;;;;;;;7.80;3.80;;;9.70;99.90;;;;;;5068454;28;20051;-80
2022/01/02 08:49:50;;;;;;;7.60;3.95;;;9.80;99.90;;;;;;5058709;28;20309;-80
2022/01/02 08:52:17;;;;;;;8.60;3.40;;;9.80;99.90;;;;;;5068053;28;20127;-80
2022/01/02 08:54:43;;;;;;;7.50;3.33;;;9.70;99.90;;;;;;5076958;28;20054;-80
2022/01/02 08:57:10;;;;;;;8.85;3.60;;;9.80;99.90;;;;;;5052060;28;20040;-80
2022/01/02 08:59:35;;;;;;;7.43;3.83;;;9.80;99.90;;;;;;5062334;28;20052;-80
2022/01/02 09:02:01;;;;;;;7.88;4.00;;;9.80;99.90;;;;;;5049533;28;20088;-79
2022/01/02 09:04:27;;;;;;;8.93;4.38;;;9.80;99.90;;;;;;5073514;28;20561;-79
2022/01/02 09:06:53;;;;;;;10.70;4.03;;;9.80;99.90;;;;;;5036652;28;20232;-78
2022/01/02 09:09:19;;;;;;;10.40;4.25;;;9.80;99.90;;;;;;5072629;28;20496;-79
2022/01/02 09:11:46;;;;;;;7.70;3.90;;;9.80;99.90;;;;;;5068811;28;20221;-79
2022/01/02 09:14:11;;;;;;;7.22;3.85;;;9.90;99.90;;;;;;5069835;28;20047;-79
2022/01/02 09:16:39;;;;;;;11.20;3.83;;;9.90;99.90;;;;;;5073825;28;20056;-79
2022/01/02 09:19:06;;;;;;;6.38;3.35;;;9.80;99.90;;;;;;5074740;28;20067;-79
2022/01/02 09:21:31;;;;;;;11.82;4.45;;;9.90;99.90;;;;;;5075144;28;20063;-79
2022/01/02 09:23:57;;;;;;;8.63;4.38;;;9.80;99.90;;;;;;5074333;28;20043;-79
2022/01/02 09:26:23;;;;;;;6.65;3.55;;;9.80;99.90;;;;;;5077027;28;20485;-80
2022/01/02 09:28:48;;;;;;;6.35;3.63;;;9.80;99.90;;;;;;5041340;28;20040;-80
2022/01/02 09:31:14;;;;;;;12.70;4.47;;;9.80;99.90;;;;;;5060138;28;20050;-80
2022/01/02 09:33:40;;;;;;;11.48;5.13;;;9.80;99.90;;;;;;5073807;28;20813;-80
2022/01/02 09:36:06;;;;;;;13.25;4.93;;;9.70;99.90;;;;;;5092008;28;20051;-80
2022/01/02 09:38:31;;;;;;;13.27;4.75;;;9.70;99.90;;;;;;5075323;28;20048;-79
2022/01/02 09:40:59;;;;;;;11.40;4.97;;;9.70;99.90;;;;;;5073899;28;20556;-79
2022/01/02 09:43:26;;;;;;;11.88;5.80;;;9.70;99.90;;;;;;5074692;28;20048;-80
2022/01/02 09:45:52;;;;;;;13.63;5.65;;;9.70;99.90;;;;;;5059083;28;20143;-80
2022/01/02 09:48:18;;;;;;;14.45;5.97;;;9.70;99.90;;;;;;5092039;28;20047;-80
2022/01/02 09:50:47;;;;;;;12.77;5.97;;;9.80;99.90;;;;;;5092334;28;20397;-80
2022/01/02 09:53:13;;;;;;;19.17;6.40;;;9.80;99.90;;;;;;5073322;28;20126;-80
2022/01/02 09:55:38;;;;;;;18.67;6.53;;;10.00;99.90;;;;;;5090894;28;20173;-81
2022/01/02 09:58:10;;;;;;;26.00;7.15;;;9.80;99.90;;;;;;5073000;28;20040;-81
2022/01/02 10:00:37;;;;;;;14.20;6.63;;;9.90;99.90;;;;;;5073527;28;20086;-82
2022/01/02 10:03:05;;;;;;;17.55;6.57;;;9.70;99.90;;;;;;5073549;28;20035;-80
2022/01/02 10:05:56;;;;;;;19.73;6.65;;;9.80;99.90;;;;;;5090194;28;20099;-81
2022/01/02 10:08:28;;;;;;;20.02;5.95;;;9.90;99.90;;;;;;5089461;28;20040;-80
2022/01/02 10:11:04;;;;;;;22.08;6.68;;;9.90;99.90;;;;;;5082871;28;20062;-80
2022/01/02 10:13:40;;;;;;;22.95;6.38;;;9.90;99.90;;;;;;5091668;28;20040;-80
2022/01/02 10:16:20;;;;;;;21.13;6.00;;;10.00;99.90;;;;;;5091026;28;20048;-80
2022/01/02 10:18:46;;;;;;;17.30;5.53;;;10.00;99.90;;;;;;5089706;28;20075;-80
2022/01/02 10:21:33;;;;;;;20.35;5.38;;;10.00;99.90;;;;;;5090624;28;20055;-79
2022/01/02 10:24:19;;;;;;;21.45;6.25;;;10.00;99.90;;;;;;5074039;28;20205;-79
2022/01/02 10:27:04;;;;;;;23.92;6.60;;;10.00;99.90;;;;;;5068027;28;20500;-82
2022/01/02 10:29:42;;;;;;;26.70;6.35;;;10.10;99.90;;;;;;5074383;28;20051;-81
2022/01/02 10:32:38;;;;;;;19.10;5.28;;;10.30;99.90;;;;;;5074181;28;20507;-81
2022/01/02 10:35:13;;;;;;;17.70;5.65;;;10.70;99.90;;;;;;5069637;28;20525;-80
2022/01/02 10:37:41;;;;;;;20.60;5.97;;;11.00;99.90;;;;;;5075648;28;20054;-80
2022/01/02 10:40:23;;;;;;;17.63;6.00;;;11.00;99.90;;;;;;5074264;28;20536;-80
2022/01/02 10:42:48;;;;;;;16.17;5.60;;;12.10;99.90;;;;;;5090399;28;20050;-80
2022/01/02 10:45:32;;;;;;;22.83;5.72;;;12.20;99.90;;;;;;5057204;28;20055;-79
2022/01/02 10:47:58;;;;;;;23.23;5.13;;;11.90;99.90;;;;;;5074651;28;20047;-79
2022/01/02 10:50:24;;;;;;;17.95;5.57;;;11.60;99.90;;;;;;5074079;28;20048;-79
2022/01/02 10:52:50;;;;;;;22.95;6.22;;;11.70;99.90;;;;;;5070560;28;20105;-80
2022/01/02 10:55:23;;;;;;;18.65;5.13;;;12.20;99.90;;;;;;5057547;28;20083;-80
2022/01/02 10:57:54;;;;;;;15.98;5.50;;;12.10;99.90;;;;;;5090770;28;20050;-80
2022/01/02 11:00:23;;;;;;;20.98;5.40;;;11.90;99.90;;;;;;5089027;28;20036;-80
2022/01/02 11:02:49;;;;;;;22.48;5.80;;;11.60;99.90;;;;;;5072350;28;20411;-80
2022/01/02 11:05:17;;;;;;;21.38;5.72;;;11.40;99.90;;;;;;5089921;28;20047;-80
2022/01/02 11:07:51;;;;;;;25.48;5.53;;;11.20;99.90;;;;;;5073710;28;20058;-81
2022/01/02 11:10:20;;;;;;;23.40;6.03;;;11.00;99.90;;;;;;5090781;28;20062;-79
2022/01/02 11:12:47;;;;;;;21.35;5.40;;;10.80;99.90;;;;;;5064810;28;20079;-80
2022/01/02 11:15:16;;;;;;;27.23;5.75;;;10.70;99.90;;;;;;5057966;28;20046;-80
2022/01/02 11:17:43;;;;;;;22.25;6.75;;;10.60;99.90;;;;;;5073654;28;20067;-81
2022/01/02 11:20:14;;;;;;;25.55;5.88;;;10.60;99.90;;;;;;5090799;28;20039;-80
2022/01/02 11:22:59;;;;;;;23.15;5.72;;;10.50;99.90;;;;;;5083000;28;20055;-79
2022/01/02 11:25:42;;;;;;;27.08;6.90;;;10.40;99.90;;;;;;5073312;28;20126;-79
2022/01/02 11:28:41;;;;;;;30.17;5.80;;;10.40;99.90;;;;;;5090957;28;20040;-79
2022/01/02 11:31:09;;;;;;;25.25;6.30;;;10.40;99.90;;;;;;5083286;28;20074;-79
2022/01/02 11:33:42;;;;;;;23.92;6.93;;;10.40;99.90;;;;;;5088710;28;20047;-82
2022/01/02 11:36:30;;;;;;;25.38;6.05;;;10.40;99.90;;;;;;5073281;28;20047;-80
2022/01/02 11:39:07;;;;;;;23.92;6.75;;;10.40;99.90;;;;;;5082221;28;20166;-80
2022/01/02 11:41:39;;;;;;;21.83;5.35;;;10.40;99.90;;;;;;5073143;28;20035;-80
2022/01/02 11:44:08;;;;;;;26.65;5.57;;;10.40;99.90;;;;;;5071265;28;20055;-80
2022/01/02 11:46:38;;;;;;;28.23;5.72;;;10.30;99.90;;;;;;5089027;28;20054;-80
2022/01/02 11:49:04;;;;;;;24.80;5.22;;;10.40;99.90;;;;;;5107645;28;20100;-80
2022/01/02 11:51:48;;;;;;;20.38;4.68;;;10.40;99.90;;;;;;5072950;28;20068;-79
2022/01/02 11:54:32;;;;;;;19.48;4.97;;;10.50;99.90;;;;;;5080366;28;20051;-80
2022/01/02 11:57:12;;;;;;;23.60;5.13;;;10.60;99.90;;;;;;5086734;28;20047;-81
2022/01/02 11:59:43;;;;;;;18.33;4.60;;;10.60;99.90;;;;;;5087307;28;20044;-79
2022/01/02 12:02:13;;;;;;;28.52;5.10;;;10.60;99.90;;;;;;5081292;28;20085;-80
2022/01/02 12:04:57;;;;;;;25.42;5.68;;;10.50;99.90;;;;;;5086158;28;20169;-79
2022/01/02 12:07:58;;;;;;;19.42;4.47;;;10.40;99.90;;;;;;5087768;28;20503;-80
2022/01/02 12:10:28;;;;;;;22.55;5.03;;;10.40;99.90;;;;;;5083853;28;20066;-80
2022/01/02 12:12:59;;;;;;;20.73;4.63;;;10.30;99.90;;;;;;5082094;28;20056;-80
2022/01/02 12:15:34;;;;;;;30.60;5.13;;;10.30;99.90;;;;;;5071188;28;20047;-79
2022/01/02 12:18:06;;;;;;;21.30;4.40;;;10.20;99.90;;;;;;5070979;28;20389;-79
2022/01/02 12:21:04;;;;;;;18.92;5.30;;;10.20;99.90;;;;;;5084488;28;20495;-80
2022/01/02 12:23:30;;;;;;;20.98;3.67;;;10.20;99.90;;;;;;5071237;28;20051;-79
2022/01/02 12:26:09;;;;;;;24.48;4.50;;;10.10;99.90;;;;;;5069732;28;20066;-80
2022/01/02 12:28:41;;;;;;;18.95;4.20;;;10.10;99.90;;;;;;5062301;28;20058;-79
2022/01/02 12:31:09;;;;;;;13.50;3.40;;;10.00;99.90;;;;;;5079370;28;20396;-79
2022/01/02 12:33:36;;;;;;;14.07;3.45;;;10.00;99.90;;;;;;5066153;28;20051;-80
2022/01/02 12:36:11;;;;;;;16.00;4.05;;;10.00;99.90;;;;;;5066476;28;20499;-79
2022/01/02 12:38:53;;;;;;;16.90;2.83;;;10.00;99.90;;;;;;5071056;28;20083;-80
2022/01/02 12:41:22;;;;;;;16.25;3.30;;;10.00;99.90;;;;;;5088168;28;20497;-80
2022/01/02 12:43:55;;;;;;;19.75;3.10;;;10.00;99.90;;;;;;5090884;28;20081;-80
2022/01/02 12:46:52;;;;;;;17.27;3.45;;;10.60;99.90;;;;;;5092006;28;20052;-79
2022/01/02 12:49:21;;;;;;;;;;;9.90;99.90;;;;;;5075877;28;20130;-79
2022/01/02 12:51:52;;;;;;;18.85;4.50;;;9.90;99.90;;;;;;5076005;28;19930;-79
2022/01/02 12:54:20;;;;;;;18.02;3.22;;;9.90;99.90;;;;;;5092899;28;20053;-79
2022/01/02 12:56:48;;;;;;;13.60;3.10;;;9.90;99.90;;;;;;5076503;28;20047;-80
2022/01/02 12:59:29;;;;;;;15.70;3.50;;;10.00;99.90;;;;;;5076222;28;20087;-79